Torrent — 5BWL2 — position and weather

sailwx.info

Track history (hours):
 
Tides and Currents Weather Stations Pressure Air Temp Water Temp Dewpoint Dewpoint Depression Visibility Wind Speed Wind Dir Waves Ship Positions

Torrent

Last reported at 2017-Sep-15 09:10 UTC. Time now 2017-Sep-19 13:44 UTC.
Position N 40°03' W 029°30'.

Length 185 m; draft 8 m.

Type: Cargo ship. MMSI: 209016000.

Date/timePositionNaut miles runAvg speedWind from/ knotsBaromVisibWave heightAir tempDewpointWater temp
2017-Sep-15 09:10N 40°03' W 029°30'511.8
2017-Sep-15 08:43N 40°02' W 029°23'211.8
2017-Sep-15 08:30N 40°02' W 029°20'612.2
2017-Sep-15 08:01N 40°00' W 029°12'612.4
2017-Sep-15 07:30N 39°59' W 029°04'612.5
2017-Sep-15 07:00N 39°58' W 028°56'612.5
2017-Sep-15 06:30N 39°57' W 028°48'612.6
2017-Sep-15 06:00N 39°55' W 028°40'612.5
2017-Sep-15 05:30N 39°54' W 028°32'812.6
2017-Sep-15 04:54N 39°53' W 028°22'512.6
2017-Sep-15 04:30N 39°52' W 028°16'612.9
2017-Sep-15 04:00N 39°51' W 028°08'612.8
2017-Sep-15 03:30N 39°50' W 027°60'1512.8
2017-Sep-15 02:19N 39°47' W 027°40'  
2017-Sep-12 04:12N 36°18' W 009°51'612.1
2017-Sep-12 03:41N 36°16' W 009°43'712.1
2017-Sep-12 03:06N 36°15' W 009°35'312.0
2017-Sep-12 02:51N 36°14' W 009°31'412.1
2017-Sep-12 02:30N 36°13' W 009°26'612.3
2017-Sep-12 02:00N 36°12' W 009°19'612.3
2017-Sep-12 01:30N 36°10' W 009°11'1112.4
2017-Sep-12 00:38N 36°08' W 008°58'412.5
2017-Sep-12 00:18N 36°07' W 008°53'412.7
2017-Sep-11 23:59N 36°06' W 008°48'15612.7
2017-Sep-11 11:45N 35°58' W 005°36'311.1
2017-Sep-11 11:30N 35°58' W 005°33'5 9.7
2017-Sep-11 11:00N 35°60' W 005°27'5 9.2
2017-Sep-11 10:30N 36°01' W 005°22'5 9.7
2017-Sep-11 10:00N 36°02' W 005°16'52512.2
2017-Sep-09 14:57N 37°32' E 005°30'2112.9
2017-Sep-09 13:19N 37°35' E 005°56'512.7
2017-Sep-09 12:56N 37°36' E 006°02'1513.5
2017-Sep-09 11:48N 37°39' E 006°21'37112.4
2017-Sep-08 05:54N 36°37' E 013°60'512.3
2017-Sep-08 05:30N 36°36' E 014°06'612.3
2017-Sep-08 05:00N 36°34' E 014°13'612.4
2017-Sep-08 04:29N 36°32' E 014°20'612.4
2017-Sep-08 04:00N 36°31' E 014°28'612.4
2017-Sep-08 03:30N 36°29' E 014°35'  
2017-Sep-05 22:52N 40°01' E 026°02'  
Track history (hours):
 
Tides and Currents Weather Stations Pressure Air Temp Water Temp Dewpoint Dewpoint Depression Visibility Wind Speed Wind Dir Waves Ship Positions

Torrent

Last reported at 2017-Sep-15 09:10 UTC. Time now 2017-Sep-19 13:44 UTC.
Position N 40°03' W 029°30'.

Length 185 m; draft 8 m.

Type: Cargo ship. MMSI: 209016000.

Date/timePositionNaut miles runAvg speedWind from/ knotsBaromVisibWave heightAir tempDewpointWater temp
2017-Sep-15 09:10N 40°03' W 029°30'511.8
2017-Sep-15 08:43N 40°02' W 029°23'211.8
2017-Sep-15 08:30N 40°02' W 029°20'612.2
2017-Sep-15 08:01N 40°00' W 029°12'612.4
2017-Sep-15 07:30N 39°59' W 029°04'612.5
2017-Sep-15 07:00N 39°58' W 028°56'612.5
2017-Sep-15 06:30N 39°57' W 028°48'612.6
2017-Sep-15 06:00N 39°55' W 028°40'612.5
2017-Sep-15 05:30N 39°54' W 028°32'812.6
2017-Sep-15 04:54N 39°53' W 028°22'512.6
2017-Sep-15 04:30N 39°52' W 028°16'612.9
2017-Sep-15 04:00N 39°51' W 028°08'612.8
2017-Sep-15 03:30N 39°50' W 027°60'1512.8
2017-Sep-15 02:19N 39°47' W 027°40'  
2017-Sep-12 04:12N 36°18' W 009°51'612.1
2017-Sep-12 03:41N 36°16' W 009°43'712.1
2017-Sep-12 03:06N 36°15' W 009°35'312.0
2017-Sep-12 02:51N 36°14' W 009°31'412.1
2017-Sep-12 02:30N 36°13' W 009°26'612.3
2017-Sep-12 02:00N 36°12' W 009°19'612.3
2017-Sep-12 01:30N 36°10' W 009°11'1112.4
2017-Sep-12 00:38N 36°08' W 008°58'412.5
2017-Sep-12 00:18N 36°07' W 008°53'412.7
2017-Sep-11 23:59N 36°06' W 008°48'15612.7
2017-Sep-11 11:45N 35°58' W 005°36'311.1
2017-Sep-11 11:30N 35°58' W 005°33'5 9.7
2017-Sep-11 11:00N 35°60' W 005°27'5 9.2
2017-Sep-11 10:30N 36°01' W 005°22'5 9.7
2017-Sep-11 10:00N 36°02' W 005°16'52512.2
2017-Sep-09 14:57N 37°32' E 005°30'2112.9
2017-Sep-09 13:19N 37°35' E 005°56'512.7
2017-Sep-09 12:56N 37°36' E 006°02'1513.5
2017-Sep-09 11:48N 37°39' E 006°21'37112.4
2017-Sep-08 05:54N 36°37' E 013°60'512.3
2017-Sep-08 05:30N 36°36' E 014°06'612.3
2017-Sep-08 05:00N 36°34' E 014°13'612.4
2017-Sep-08 04:29N 36°32' E 014°20'612.4
2017-Sep-08 04:00N 36°31' E 014°28'612.4
2017-Sep-08 03:30N 36°29' E 014°35'  
2017-Sep-05 22:52N 40°01' E 026°02'  

Dump ship's entire track history